Date,TemperatureHighF,TemperatureAvgF,TemperatureLowF,DewpointHighF,DewpointAvgF,DewpointLowF,HumidityHigh,HumidityAvg,HumidityLow,PressureMaxIn,PressureMinIn,WindSpeedMaxMPH,WindSpeedAvgMPH,GustSpeedMaxMPH,PrecipitationSumIn
2013-2-1,50,41,30,35,32,27,92,70,53,30.37,30.22,8,1,0,0.00
2013-2-2,45,34,26,33,28,23,92,79,60,30.41,30.24,8,1,0,0.00
2013-2-3,46,36,29,33,29,24,86,73,57,30.24,30.13,6,1,0,0.00
2013-2-4,43,37,32,32,30,28,83,75,65,30.14,29.97,5,1,0,0.00
2013-2-5,47,39,32,34,31,29,88,70,59,29.98,29.85,9,3,0,0.00
2013-2-6,45,39,32,32,28,26,84,65,48,30.08,29.93,20,4,20,0.00
2013-2-7,40,36,31,32,28,24,89,70,59,30.00,29.90,12,3,0,0.00
2013-2-8,38,33,29,32,25,22,77,70,63,30.06,29.99,16,9,22,0.00
2013-2-9,41,36,31,32,26,23,77,67,51,30.09,30.00,21,9,25,0.00
2013-2-10,44,37,31,32,27,23,78,65,48,30.18,30.08,21,7,20,0.00
2013-2-11,46,35,23,31,26,19,83,68,46,30.20,30.12,9,2,0,0.00
2013-2-12,47,41,38,36,32,30,78,70,55,30.29,30.20,12,3,0,0.00
2013-2-13,50,43,38,33,31,28,77,62,45,30.33,30.23,14,3,21,0.00
2013-2-14,49,42,34,34,31,27,75,64,48,30.44,30.32,7,1,0,0.00
2013-2-15,53,42,31,36,32,27,88,68,48,30.44,30.24,9,2,0,0.00
2013-2-16,54,42,36,36,32,26,82,67,44,30.24,30.00,18,4,27,0.00
2013-2-17,43,35,26,32,24,21,80,61,44,30.10,30.03,14,3,21,0.00
2013-2-18,42,34,23,25,22,20,87,65,47,30.06,29.72,18,4,24,0.00
2013-2-19,40,35,31,33,28,24,90,75,55,29.87,29.67,9,2,0,0.00
2013-2-20,42,35,29,32,25,20,81,67,41,29.96,29.86,9,3,0,0.00
2013-2-21,37,33,30,32,28,24,90,77,67,30.04,29.95,9,1,0,0.00
2013-2-22,39,34,31,33,30,27,93,85,74,30.04,29.78,13,1,29,0.00
2013-2-23,37,33,30,32,27,22,88,73,65,30.23,29.83,14,5,22,0.00
2013-2-24,40,33,28,27,24,21,82,68,49,30.29,30.06,7,2,0,0.00
2013-2-25,42,36,31,32,26,21,90,66,51,30.16,29.98,16,4,21,0.00
2013-2-26,42,35,30,32,22,19,75,56,45,30.28,30.16,12,2,0,0.00
2013-2-27,48,38,28,32,24,19,71,56,42,30.27,30.21,13,2,0,0.00
2013-2-28,41,37,34,36,32,26,91,82,57,30.39,30.22,5,1,0,0.00